sensor_id;sensor_type;location;lat;lon;timestamp;temperature;humidity
1123;DHT22;548;48.778;9.252;2023-01-04T02:14:31;3.20;99.90
1123;DHT22;548;48.778;9.252;2023-01-04T02:17:07;3.20;99.90
1123;DHT22;548;48.778;9.252;2023-01-04T02:19:56;3.20;99.90
1123;DHT22;548;48.778;9.252;2023-01-04T02:28:43;3.30;99.90
1123;DHT22;548;48.778;9.252;2023-01-04T02:31:27;3.30;99.90
1123;DHT22;548;48.778;9.252;2023-01-04T02:34:03;3.30;99.90
1123;DHT22;548;48.778;9.252;2023-01-04T02:36:36;3.20;99.90
1123;DHT22;548;48.778;9.252;2023-01-04T02:39:15;3.20;99.90
1123;DHT22;548;48.778;9.252;2023-01-04T02:41:48;3.20;99.90
1123;DHT22;548;48.778;9.252;2023-01-04T02:44:18;3.30;99.90
1123;DHT22;548;48.778;9.252;2023-01-04T02:47:11;3.20;99.90
1123;DHT22;548;48.778;9.252;2023-01-04T02:49:40;3.20;99.90
1123;DHT22;548;48.778;9.252;2023-01-04T02:52:24;3.20;99.90
1123;DHT22;548;48.778;9.252;2023-01-04T02:54:53;3.20;99.90
1123;DHT22;548;48.778;9.252;2023-01-04T02:57:27;3.10;99.90
1123;DHT22;548;48.778;9.252;2023-01-04T03:00:16;3.10;99.90
1123;DHT22;548;48.778;9.252;2023-01-04T03:02:58;3.10;99.90
1123;DHT22;548;48.778;9.252;2023-01-04T03:05:52;3.10;99.90
1123;DHT22;548;48.778;9.252;2023-01-04T03:08:46;3.10;99.90
1123;DHT22;548;48.778;9.252;2023-01-04T03:11:15;3.10;99.90
1123;DHT22;548;48.778;9.252;2023-01-04T03:14:06;3.10;99.90
1123;DHT22;548;48.778;9.252;2023-01-04T03:16:36;3.10;99.90
1123;DHT22;548;48.778;9.252;2023-01-04T03:19:06;3.10;99.90
1123;DHT22;548;48.778;9.252;2023-01-04T03:21:35;3.10;99.90
1123;DHT22;548;48.778;9.252;2023-01-04T03:24:04;3.10;99.90
1123;DHT22;548;48.778;9.252;2023-01-04T03:26:53;3.20;99.90
1123;DHT22;548;48.778;9.252;2023-01-04T03:29:50;3.30;99.90
1123;DHT22;548;48.778;9.252;2023-01-04T03:32:42;3.30;99.90
1123;DHT22;548;48.778;9.252;2023-01-04T03:35:33;3.40;99.90
1123;DHT22;548;48.778;9.252;2023-01-04T03:38:06;3.40;99.90
1123;DHT22;548;48.778;9.252;2023-01-04T03:40:55;3.40;99.90
1123;DHT22;548;48.778;9.252;2023-01-04T03:43:44;3.30;99.90
1123;DHT22;548;48.778;9.252;2023-01-04T03:46:36;3.20;99.90
1123;DHT22;548;48.778;9.252;2023-01-04T03:49:28;3.20;99.90
1123;DHT22;548;48.778;9.252;2023-01-04T03:51:57;3.20;99.90
1123;DHT22;548;48.778;9.252;2023-01-04T03:54:28;3.10;99.90
1123;DHT22;548;48.778;9.252;2023-01-04T03:56:56;3.10;99.90
1123;DHT22;548;48.778;9.252;2023-01-04T03:59:24;3.10;99.90
1123;DHT22;548;48.778;9.252;2023-01-04T04:01:51;3.10;99.90
1123;DHT22;548;48.778;9.252;2023-01-04T04:04:19;3.20;99.90
1123;DHT22;548;48.778;9.252;2023-01-04T04:07:04;3.20;99.90
1123;DHT22;548;48.778;9.252;2023-01-04T04:09:48;3.30;99.90
1123;DHT22;548;48.778;9.252;2023-01-04T04:12:15;3.40;99.90
1123;DHT22;548;48.778;9.252;2023-01-04T04:14:42;3.50;99.90
1123;DHT22;548;48.778;9.252;2023-01-04T04:17:08;3.60;99.90
1123;DHT22;548;48.778;9.252;2023-01-04T04:19:35;3.60;99.90
1123;DHT22;548;48.778;9.252;2023-01-04T04:22:03;3.50;99.90
1123;DHT22;548;48.778;9.252;2023-01-04T04:24:30;3.40;99.90
1123;DHT22;548;48.778;9.252;2023-01-04T04:26:57;3.40;99.90
1123;DHT22;548;48.778;9.252;2023-01-04T04:29:23;3.40;99.90
1123;DHT22;548;48.778;9.252;2023-01-04T04:31:50;3.40;99.90
1123;DHT22;548;48.778;9.252;2023-01-04T04:34:17;3.40;99.90
1123;DHT22;548;48.778;9.252;2023-01-04T04:36:44;3.50;99.90
1123;DHT22;548;48.778;9.252;2023-01-04T04:39:12;3.50;99.90
1123;DHT22;548;48.778;9.252;2023-01-04T04:41:39;3.50;99.90
1123;DHT22;548;48.778;9.252;2023-01-04T04:44:06;3.50;99.90
1123;DHT22;548;48.778;9.252;2023-01-04T04:46:34;3.60;99.90
1123;DHT22;548;48.778;9.252;2023-01-04T04:49:01;3.60;99.90
1123;DHT22;548;48.778;9.252;2023-01-04T04:51:28;3.70;99.90
1123;DHT22;548;48.778;9.252;2023-01-04T04:53:54;3.80;99.90
1123;DHT22;548;48.778;9.252;2023-01-04T04:56:22;3.80;99.90
1123;DHT22;548;48.778;9.252;2023-01-04T04:58:49;3.80;99.90
1123;DHT22;548;48.778;9.252;2023-01-04T05:01:16;3.90;99.90
1123;DHT22;548;48.778;9.252;2023-01-04T05:03:43;3.90;99.90
1123;DHT22;548;48.778;9.252;2023-01-04T05:06:10;3.90;99.90
1123;DHT22;548;48.778;9.252;2023-01-04T05:08:36;4.00;99.90
1123;DHT22;548;48.778;9.252;2023-01-04T05:11:04;4.10;99.90
1123;DHT22;548;48.778;9.252;2023-01-04T05:13:33;4.20;99.90
1123;DHT22;548;48.778;9.252;2023-01-04T05:16:00;4.30;99.90
1123;DHT22;548;48.778;9.252;2023-01-04T05:18:27;4.40;99.90
1123;DHT22;548;48.778;9.252;2023-01-04T05:20:54;4.50;99.90
1123;DHT22;548;48.778;9.252;2023-01-04T05:23:21;4.50;99.90
1123;DHT22;548;48.778;9.252;2023-01-04T05:25:50;4.50;99.90
1123;DHT22;548;48.778;9.252;2023-01-04T05:28:18;4.50;99.90
1123;DHT22;548;48.778;9.252;2023-01-04T05:30:48;4.50;99.90
1123;DHT22;548;48.778;9.252;2023-01-04T05:33:19;4.60;99.90
1123;DHT22;548;48.778;9.252;2023-01-04T05:35:50;4.60;99.90
1123;DHT22;548;48.778;9.252;2023-01-04T05:38:18;4.70;99.90
1123;DHT22;548;48.778;9.252;2023-01-04T05:40:45;4.70;99.90
1123;DHT22;548;48.778;9.252;2023-01-04T05:43:12;4.70;99.90
1123;DHT22;548;48.778;9.252;2023-01-04T05:45:39;4.70;99.90
1123;DHT22;548;48.778;9.252;2023-01-04T05:48:07;4.70;99.90
1123;DHT22;548;48.778;9.252;2023-01-04T05:50:34;4.80;99.90
1123;DHT22;548;48.778;9.252;2023-01-04T05:53:01;4.70;99.90
1123;DHT22;548;48.778;9.252;2023-01-04T05:55:27;4.70;99.90
1123;DHT22;548;48.778;9.252;2023-01-04T05:57:54;4.80;99.90
1123;DHT22;548;48.778;9.252;2023-01-04T06:00:21;4.80;99.90
1123;DHT22;548;48.778;9.252;2023-01-04T06:02:47;5.00;99.90
1123;DHT22;548;48.778;9.252;2023-01-04T06:05:18;5.00;99.90
1123;DHT22;548;48.778;9.252;2023-01-04T06:07:44;5.10;99.90
1123;DHT22;548;48.778;9.252;2023-01-04T06:10:12;5.10;99.90
1123;DHT22;548;48.778;9.252;2023-01-04T06:12:39;5.20;99.90
1123;DHT22;548;48.778;9.252;2023-01-04T06:15:07;5.20;99.90
1123;DHT22;548;48.778;9.252;2023-01-04T06:17:35;5.30;99.90
1123;DHT22;548;48.778;9.252;2023-01-04T06:20:02;5.30;99.90
1123;DHT22;548;48.778;9.252;2023-01-04T06:22:32;5.50;99.90
1123;DHT22;548;48.778;9.252;2023-01-04T06:24:58;5.50;99.90
1123;DHT22;548;48.778;9.252;2023-01-04T06:27:25;5.80;99.90
1123;DHT22;548;48.778;9.252;2023-01-04T06:29:52;6.00;99.90
1123;DHT22;548;48.778;9.252;2023-01-04T06:32:19;6.10;99.90
1123;DHT22;548;48.778;9.252;2023-01-04T06:34:46;6.00;99.90
1123;DHT22;548;48.778;9.252;2023-01-04T06:37:12;5.80;99.90
1123;DHT22;548;48.778;9.252;2023-01-04T06:39:40;5.70;99.90
1123;DHT22;548;48.778;9.252;2023-01-04T06:42:07;5.60;99.90
1123;DHT22;548;48.778;9.252;2023-01-04T06:44:55;5.50;99.90
1123;DHT22;548;48.778;9.252;2023-01-04T06:47:22;5.50;99.90
1123;DHT22;548;48.778;9.252;2023-01-04T06:49:49;5.50;99.90
1123;DHT22;548;48.778;9.252;2023-01-04T06:52:15;5.50;99.90
1123;DHT22;548;48.778;9.252;2023-01-04T06:54:43;5.50;99.90
1123;DHT22;548;48.778;9.252;2023-01-04T06:57:11;5.40;99.90
1123;DHT22;548;48.778;9.252;2023-01-04T06:59:38;5.50;99.90
1123;DHT22;548;48.778;9.252;2023-01-04T07:02:04;5.50;99.90
1123;DHT22;548;48.778;9.252;2023-01-04T07:04:31;5.70;99.90
1123;DHT22;548;48.778;9.252;2023-01-04T07:06:58;5.70;99.90
1123;DHT22;548;48.778;9.252;2023-01-04T07:09:24;5.70;99.90
1123;DHT22;548;48.778;9.252;2023-01-04T07:11:52;5.60;99.90
1123;DHT22;548;48.778;9.252;2023-01-04T07:14:19;5.40;99.90
1123;DHT22;548;48.778;9.252;2023-01-04T07:16:46;5.40;99.90
1123;DHT22;548;48.778;9.252;2023-01-04T07:19:12;5.30;99.90
1123;DHT22;548;48.778;9.252;2023-01-04T07:21:39;5.30;99.90
1123;DHT22;548;48.778;9.252;2023-01-04T07:24:06;5.20;99.90
1123;DHT22;548;48.778;9.252;2023-01-04T07:26:33;5.10;99.90
1123;DHT22;548;48.778;9.252;2023-01-04T07:29:02;5.10;99.90
1123;DHT22;548;48.778;9.252;2023-01-04T07:31:41;5.00;99.90
1123;DHT22;548;48.778;9.252;2023-01-04T07:34:09;5.00;99.90
1123;DHT22;548;48.778;9.252;2023-01-04T07:36:35;5.00;99.90
1123;DHT22;548;48.778;9.252;2023-01-04T07:39:02;5.10;99.90
1123;DHT22;548;48.778;9.252;2023-01-04T07:41:29;5.10;99.90
1123;DHT22;548;48.778;9.252;2023-01-04T07:43:56;5.10;99.90
1123;DHT22;548;48.778;9.252;2023-01-04T07:46:24;5.10;99.90
1123;DHT22;548;48.778;9.252;2023-01-04T07:48:52;5.20;99.90
1123;DHT22;548;48.778;9.252;2023-01-04T07:51:19;5.20;99.90
1123;DHT22;548;48.778;9.252;2023-01-04T07:53:45;5.10;99.90
1123;DHT22;548;48.778;9.252;2023-01-04T07:56:12;5.10;99.90
1123;DHT22;548;48.778;9.252;2023-01-04T07:58:39;5.10;99.90
1123;DHT22;548;48.778;9.252;2023-01-04T08:01:06;5.20;99.90
1123;DHT22;548;48.778;9.252;2023-01-04T08:03:34;5.30;99.90
1123;DHT22;548;48.778;9.252;2023-01-04T08:06:02;5.40;99.90
1123;DHT22;548;48.778;9.252;2023-01-04T08:08:29;5.40;99.90
1123;DHT22;548;48.778;9.252;2023-01-04T08:11:00;5.50;99.90
1123;DHT22;548;48.778;9.252;2023-01-04T08:13:26;5.50;99.90
1123;DHT22;548;48.778;9.252;2023-01-04T08:15:53;5.70;99.90
1123;DHT22;548;48.778;9.252;2023-01-04T08:18:20;5.90;99.90
1123;DHT22;548;48.778;9.252;2023-01-04T08:20:49;6.00;99.90
1123;DHT22;548;48.778;9.252;2023-01-04T08:23:15;6.10;99.90
1123;DHT22;548;48.778;9.252;2023-01-04T08:25:42;6.20;99.90
1123;DHT22;548;48.778;9.252;2023-01-04T08:28:09;6.00;99.90
1123;DHT22;548;48.778;9.252;2023-01-04T08:30:35;6.00;99.90
1123;DHT22;548;48.778;9.252;2023-01-04T08:33:05;5.90;99.90
1123;DHT22;548;48.778;9.252;2023-01-04T08:35:37;6.00;99.90
1123;DHT22;548;48.778;9.252;2023-01-04T08:38:05;6.00;99.90
1123;DHT22;548;48.778;9.252;2023-01-04T08:40:32;6.00;99.90
1123;DHT22;548;48.778;9.252;2023-01-04T08:42:59;6.10;99.90
1123;DHT22;548;48.778;9.252;2023-01-04T08:45:25;6.20;99.90
1123;DHT22;548;48.778;9.252;2023-01-04T08:47:52;6.30;99.90
1123;DHT22;548;48.778;9.252;2023-01-04T08:50:19;6.40;99.90
1123;DHT22;548;48.778;9.252;2023-01-04T08:52:46;6.50;99.90
1123;DHT22;548;48.778;9.252;2023-01-04T08:55:14;6.50;99.90
1123;DHT22;548;48.778;9.252;2023-01-04T08:57:41;6.50;99.90
1123;DHT22;548;48.778;9.252;2023-01-04T09:00:09;6.50;99.90
1123;DHT22;548;48.778;9.252;2023-01-04T09:02:36;6.40;99.90
1123;DHT22;548;48.778;9.252;2023-01-04T09:05:03;6.40;99.90
1123;DHT22;548;48.778;9.252;2023-01-04T09:07:30;6.40;99.90
1123;DHT22;548;48.778;9.252;2023-01-04T09:09:57;6.40;99.90
1123;DHT22;548;48.778;9.252;2023-01-04T09:12:26;6.50;99.90
1123;DHT22;548;48.778;9.252;2023-01-04T09:14:53;6.50;99.90
1123;DHT22;548;48.778;9.252;2023-01-04T09:17:19;6.70;99.90
1123;DHT22;548;48.778;9.252;2023-01-04T09:19:47;6.80;99.90
1123;DHT22;548;48.778;9.252;2023-01-04T09:22:14;6.90;99.90
1123;DHT22;548;48.778;9.252;2023-01-04T09:24:40;7.00;99.90
1123;DHT22;548;48.778;9.252;2023-01-04T09:27:07;7.20;99.90
1123;DHT22;548;48.778;9.252;2023-01-04T09:29:35;7.40;99.90
1123;DHT22;548;48.778;9.252;2023-01-04T09:32:02;7.50;99.90
1123;DHT22;548;48.778;9.252;2023-01-04T09:34:28;7.70;99.90
1123;DHT22;548;48.778;9.252;2023-01-04T09:36:55;7.70;99.90
1123;DHT22;548;48.778;9.252;2023-01-04T09:39:22;7.90;99.90
1123;DHT22;548;48.778;9.252;2023-01-04T09:41:55;8.20;99.90
1123;DHT22;548;48.778;9.252;2023-01-04T09:44:30;8.40;99.90
1123;DHT22;548;48.778;9.252;2023-01-04T09:47:01;8.60;99.90
1123;DHT22;548;48.778;9.252;2023-01-04T09:49:35;8.60;99.90
1123;DHT22;548;48.778;9.252;2023-01-04T09:52:08;8.70;99.90
1123;DHT22;548;48.778;9.252;2023-01-04T09:54:45;8.70;99.90
1123;DHT22;548;48.778;9.252;2023-01-04T09:57:19;8.80;99.90
1123;DHT22;548;48.778;9.252;2023-01-04T09:59:49;8.80;99.90
1123;DHT22;548;48.778;9.252;2023-01-04T10:02:23;8.80;99.90
1123;DHT22;548;48.778;9.252;2023-01-04T10:04:51;8.80;99.90
1123;DHT22;548;48.778;9.252;2023-01-04T10:07:23;8.80;99.90
1123;DHT22;548;48.778;9.252;2023-01-04T10:09:52;8.90;99.90
1123;DHT22;548;48.778;9.252;2023-01-04T10:12:32;8.90;99.90
1123;DHT22;548;48.778;9.252;2023-01-04T10:15:14;9.00;99.90
1123;DHT22;548;48.778;9.252;2023-01-04T10:17:57;9.00;99.90
1123;DHT22;548;48.778;9.252;2023-01-04T10:20:58;9.10;99.90
1123;DHT22;548;48.778;9.252;2023-01-04T10:23:35;9.30;99.90
1123;DHT22;548;48.778;9.252;2023-01-04T10:26:10;9.30;99.90
1123;DHT22;548;48.778;9.252;2023-01-04T10:28:47;9.50;99.90
1123;DHT22;548;48.778;9.252;2023-01-04T10:31:21;9.50;99.90
1123;DHT22;548;48.778;9.252;2023-01-04T10:33:58;9.60;99.90
1123;DHT22;548;48.778;9.252;2023-01-04T10:36:29;9.60;99.90
1123;DHT22;548;48.778;9.252;2023-01-04T10:38:59;9.70;99.90
1123;DHT22;548;48.778;9.252;2023-01-04T10:41:28;9.70;99.90
1123;DHT22;548;48.778;9.252;2023-01-04T10:44:05;9.80;99.90
1123;DHT22;548;48.778;9.252;2023-01-04T10:46:39;9.80;99.90
1123;DHT22;548;48.778;9.252;2023-01-04T10:49:14;9.80;99.90
1123;DHT22;548;48.778;9.252;2023-01-04T10:51:44;9.90;99.90
1123;DHT22;548;48.778;9.252;2023-01-04T10:54:17;10.00;99.90
1123;DHT22;548;48.778;9.252;2023-01-04T10:56:49;10.10;99.90
1123;DHT22;548;48.778;9.252;2023-01-04T10:59:21;10.20;99.90
1123;DHT22;548;48.778;9.252;2023-01-04T11:01:52;10.30;99.90
1123;DHT22;548;48.778;9.252;2023-01-04T11:04:24;10.20;99.90
1123;DHT22;548;48.778;9.252;2023-01-04T11:06:55;10.30;99.90
1123;DHT22;548;48.778;9.252;2023-01-04T11:09:28;10.40;99.90
1123;DHT22;548;48.778;9.252;2023-01-04T11:12:00;10.50;99.90
1123;DHT22;548;48.778;9.252;2023-01-04T11:14:27;10.50;99.90
1123;DHT22;548;48.778;9.252;2023-01-04T11:16:57;10.70;99.90
1123;DHT22;548;48.778;9.252;2023-01-04T11:19:26;10.60;99.90
1123;DHT22;548;48.778;9.252;2023-01-04T11:21:57;10.60;99.90
1123;DHT22;548;48.778;9.252;2023-01-04T11:24:28;10.70;99.90
1123;DHT22;548;48.778;9.252;2023-01-04T11:26:56;10.70;99.90
1123;DHT22;548;48.778;9.252;2023-01-04T11:29:31;10.60;99.90
1123;DHT22;548;48.778;9.252;2023-01-04T11:32:00;10.60;99.90
1123;DHT22;548;48.778;9.252;2023-01-04T11:34:47;10.70;99.90
1123;DHT22;548;48.778;9.252;2023-01-04T11:37:26;10.70;99.90
1123;DHT22;548;48.778;9.252;2023-01-04T11:40:19;10.70;99.90
1123;DHT22;548;48.778;9.252;2023-01-04T11:42:48;10.90;99.90
1123;DHT22;548;48.778;9.252;2023-01-04T11:45:23;10.80;99.90
1123;DHT22;548;48.778;9.252;2023-01-04T11:47:52;10.90;99.90
1123;DHT22;548;48.778;9.252;2023-01-04T11:50:37;10.90;99.90
1123;DHT22;548;48.778;9.252;2023-01-04T11:53:28;10.90;99.90
1123;DHT22;548;48.778;9.252;2023-01-04T11:56:23;10.90;99.90
1123;DHT22;548;48.778;9.252;2023-01-04T11:59:08;10.90;99.90
1123;DHT22;548;48.778;9.252;2023-01-04T12:01:38;10.90;99.90
1123;DHT22;548;48.778;9.252;2023-01-04T12:04:10;10.90;99.90
1123;DHT22;548;48.778;9.252;2023-01-04T12:06:43;10.90;99.90
1123;DHT22;548;48.778;9.252;2023-01-04T12:09:13;11.00;99.90
1123;DHT22;548;48.778;9.252;2023-01-04T12:11:42;11.00;99.90
1123;DHT22;548;48.778;9.252;2023-01-04T12:14:17;11.00;99.90
1123;DHT22;548;48.778;9.252;2023-01-04T12:16:48;11.00;99.90
1123;DHT22;548;48.778;9.252;2023-01-04T12:19:18;11.00;99.90
1123;DHT22;548;48.778;9.252;2023-01-04T12:21:48;11.00;99.90
1123;DHT22;548;48.778;9.252;2023-01-04T20:10:34;12.50;99.90
1123;DHT22;548;48.778;9.252;2023-01-04T20:13:01;12.50;99.90
1123;DHT22;548;48.778;9.252;2023-01-04T20:15:27;12.40;99.90
1123;DHT22;548;48.778;9.252;2023-01-04T20:17:54;12.30;99.90
1123;DHT22;548;48.778;9.252;2023-01-04T20:20:21;12.40;99.90
1123;DHT22;548;48.778;9.252;2023-01-04T20:22:47;12.30;99.90
1123;DHT22;548;48.778;9.252;2023-01-04T20:25:14;12.30;99.90
1123;DHT22;548;48.778;9.252;2023-01-04T20:27:42;12.30;99.90
1123;DHT22;548;48.778;9.252;2023-01-04T20:30:10;12.20;99.90
1123;DHT22;548;48.778;9.252;2023-01-04T20:32:36;12.20;99.90
1123;DHT22;548;48.778;9.252;2023-01-04T20:35:03;12.20;99.90
1123;DHT22;548;48.778;9.252;2023-01-04T20:37:30;12.20;99.90
1123;DHT22;548;48.778;9.252;2023-01-04T20:39:57;12.20;99.90
1123;DHT22;548;48.778;9.252;2023-01-04T20:42:23;12.20;99.90
1123;DHT22;548;48.778;9.252;2023-01-04T20:45:10;12.20;99.90
1123;DHT22;548;48.778;9.252;2023-01-04T20:47:37;12.20;99.90
1123;DHT22;548;48.778;9.252;2023-01-04T20:50:04;12.10;99.90
1123;DHT22;548;48.778;9.252;2023-01-04T20:52:31;12.10;99.90
1123;DHT22;548;48.778;9.252;2023-01-04T20:54:58;12.10;99.90
1123;DHT22;548;48.778;9.252;2023-01-04T20:57:24;12.10;99.90
1123;DHT22;548;48.778;9.252;2023-01-04T20:59:51;12.10;99.90
1123;DHT22;548;48.778;9.252;2023-01-04T21:02:19;12.20;99.90
1123;DHT22;548;48.778;9.252;2023-01-04T21:04:46;12.00;99.90
1123;DHT22;548;48.778;9.252;2023-01-04T21:07:13;11.90;99.90
1123;DHT22;548;48.778;9.252;2023-01-04T21:09:39;11.90;99.90
1123;DHT22;548;48.778;9.252;2023-01-04T21:12:06;11.90;99.90
1123;DHT22;548;48.778;9.252;2023-01-04T21:14:33;11.90;99.90
1123;DHT22;548;48.778;9.252;2023-01-04T21:17:02;11.90;99.90
1123;DHT22;548;48.778;9.252;2023-01-04T21:19:30;11.90;99.90
1123;DHT22;548;48.778;9.252;2023-01-04T21:21:58;11.90;99.90
1123;DHT22;548;48.778;9.252;2023-01-04T21:24:26;11.90;99.90
1123;DHT22;548;48.778;9.252;2023-01-04T21:26:53;12.00;99.90
1123;DHT22;548;48.778;9.252;2023-01-04T21:29:20;12.10;99.90
1123;DHT22;548;48.778;9.252;2023-01-04T21:31:46;12.00;99.90
1123;DHT22;548;48.778;9.252;2023-01-04T21:34:13;12.00;99.90
1123;DHT22;548;48.778;9.252;2023-01-04T21:36:41;12.00;99.90
1123;DHT22;548;48.778;9.252;2023-01-04T21:39:08;12.00;99.90
1123;DHT22;548;48.778;9.252;2023-01-04T21:41:35;12.00;99.90
1123;DHT22;548;48.778;9.252;2023-01-04T21:44:01;11.90;99.90
1123;DHT22;548;48.778;9.252;2023-01-04T21:46:28;12.00;99.90
1123;DHT22;548;48.778;9.252;2023-01-04T21:48:56;11.90;99.90
1123;DHT22;548;48.778;9.252;2023-01-04T21:51:23;12.00;99.90
1123;DHT22;548;48.778;9.252;2023-01-04T21:53:51;11.90;99.90
1123;DHT22;548;48.778;9.252;2023-01-04T21:56:20;11.90;99.90
1123;DHT22;548;48.778;9.252;2023-01-04T21:58:48;11.80;99.90
1123;DHT22;548;48.778;9.252;2023-01-04T22:01:16;11.80;99.90
1123;DHT22;548;48.778;9.252;2023-01-04T22:03:44;11.80;99.90
1123;DHT22;548;48.778;9.252;2023-01-04T22:06:11;11.80;99.90
1123;DHT22;548;48.778;9.252;2023-01-04T22:08:38;11.70;99.90
1123;DHT22;548;48.778;9.252;2023-01-04T22:11:08;11.70;99.90
1123;DHT22;548;48.778;9.252;2023-01-04T22:13:35;11.80;99.90
1123;DHT22;548;48.778;9.252;2023-01-04T22:16:04;11.70;99.90
1123;DHT22;548;48.778;9.252;2023-01-04T22:18:31;11.70;99.90
1123;DHT22;548;48.778;9.252;2023-01-04T22:21:02;11.80;99.90
1123;DHT22;548;48.778;9.252;2023-01-04T22:23:29;11.80;99.90
1123;DHT22;548;48.778;9.252;2023-01-04T22:25:56;11.80;99.90
1123;DHT22;548;48.778;9.252;2023-01-04T22:28:24;11.90;99.90
1123;DHT22;548;48.778;9.252;2023-01-04T22:30:52;11.90;99.90
1123;DHT22;548;48.778;9.252;2023-01-04T22:33:20;11.90;99.90
1123;DHT22;548;48.778;9.252;2023-01-04T22:35:47;11.90;99.90
1123;DHT22;548;48.778;9.252;2023-01-04T22:38:14;11.90;99.90
1123;DHT22;548;48.778;9.252;2023-01-04T22:40:41;11.90;99.90
1123;DHT22;548;48.778;9.252;2023-01-04T22:43:08;11.80;99.90
1123;DHT22;548;48.778;9.252;2023-01-04T22:45:36;11.90;99.90
1123;DHT22;548;48.778;9.252;2023-01-04T22:48:02;11.90;99.90
1123;DHT22;548;48.778;9.252;2023-01-04T22:50:29;12.00;99.90
1123;DHT22;548;48.778;9.252;2023-01-04T22:52:56;12.00;99.90
1123;DHT22;548;48.778;9.252;2023-01-04T22:55:22;12.00;99.90
1123;DHT22;548;48.778;9.252;2023-01-04T22:57:49;12.10;99.90
1123;DHT22;548;48.778;9.252;2023-01-04T23:00:16;12.10;99.90
1123;DHT22;548;48.778;9.252;2023-01-04T23:02:44;12.20;99.90
1123;DHT22;548;48.778;9.252;2023-01-04T23:05:10;12.20;99.90
1123;DHT22;548;48.778;9.252;2023-01-04T23:07:37;12.20;99.90
